.
WxDataArchive / Data Records for 2011-05-27
2011-05-26 May 2011 2011-05-28

Data Records for Friday, 27 May 2011

Time	Temp	Chill	HIndex	Humid	Dewpt	 Wind 	HiWind	WindDir	Rain 	Barom 
-----	----	-----	------	-----	-----	------	------	-------	-----	----- 
00:00	49.2	49.2	49.2	94	47.5	1	4	135	0.00	29.851 
00:05	49.2	49.2	49.2	94	47.5	0	2	112	0.00	29.851 
00:10	49.2	49.2	49.2	94	47.5	0	3	112	0.00	29.851 
00:15	49.2	49.2	49.2	94	47.5	0	2	112	0.00	29.851 
00:20	49.2	49.2	49.2	94	47.5	0	2	112	0.00	29.851 
00:25	49.1	49.1	49.1	94	47.4	0	3	112	0.00	29.851 
00:30	49.2	49.2	49.2	94	47.5	0	4	112	0.00	29.852 
00:35	49.2	49.2	49.2	94	47.5	1	4	112	0.00	29.852 
00:40	49.2	49.2	49.2	94	47.5	0	4	68	0.00	29.852 
00:45	49.2	49.2	49.2	94	47.5	0	4	68	0.00	29.858 
00:50	49.4	49.4	49.4	94	47.7	1	3	135	0.00	29.858 
00:55	49.4	49.4	49.4	94	47.7	0	3	135	0.00	29.858 
01:00	49.4	49.4	49.4	94	47.7	0	2	68	0.00	29.854 
01:05	49.4	49.4	49.4	94	47.7	0	2	68	0.00	29.854 
01:10	49.4	49.4	49.4	94	47.7	0	2	135	0.00	29.854 
01:15	49.2	49.2	49.2	94	47.5	0	2	135	0.00	29.855 
01:20	49.2	49.2	49.2	94	47.5	0	2	135	0.00	29.855 
01:25	49.2	49.2	49.2	94	47.5	0	4	112	0.00	29.855 
01:30	49.2	49.2	49.2	94	47.5	0	3	135	0.00	29.854 
01:35	49.2	49.2	49.2	94	47.5	0	1	135	0.00	29.854 
01:40	49.2	49.2	49.2	94	47.5	0	3	90	0.00	29.854 
01:45	49.2	49.2	49.2	94	47.5	1	3	90	0.00	29.854 
01:50	49.2	49.2	49.2	94	47.5	0	3	90	0.00	29.854 
01:55	49.2	49.2	49.2	94	47.5	1	4	90	0.00	29.854 
02:00	49.2	49.2	49.2	94	47.5	1	4	90	0.00	29.864 
02:05	49.2	49.2	49.2	94	47.5	1	6	90	0.00	29.864 
02:10	49.1	49.1	49.1	94	47.4	1	4	90	0.00	29.864 
02:15	49.1	49.1	49.1	95	47.7	0	2	112	0.00	29.869 
02:20	49.1	49.1	49.1	95	47.7	1	4	112	0.00	29.869 
02:25	49.1	49.1	49.1	95	47.7	0	3	112	0.00	29.869 
02:30	48.9	48.9	48.9	95	47.5	1	5	135	0.00	29.870 
02:35	48.9	48.9	48.9	95	47.5	0	2	158	0.00	29.870 
02:40	48.9	48.9	48.9	95	47.5	0	2	158	0.00	29.870 
02:45	48.9	48.9	48.9	95	47.5	0	3	248	0.00	29.869 
02:50	48.9	48.9	48.9	95	47.5	0	1	248	0.00	29.869 
02:55	48.9	48.9	48.9	95	47.5	0	1	248	0.00	29.869 
03:00	48.8	48.8	48.8	95	47.4	0	2	248	0.00	29.874 
03:05	48.8	48.8	48.8	95	47.4	0	1	248	0.00	29.874 
03:10	48.8	48.8	48.8	95	47.4	0	1	248	0.00	29.874 
03:15	48.8	48.8	48.8	95	47.4	0	2	248	0.00	29.880 
03:20	48.8	48.8	48.8	95	47.4	0	1	248	0.00	29.880 
03:25	48.8	48.8	48.8	95	47.4	0	3	225	0.00	29.880 
03:30	48.8	48.8	48.8	95	47.4	0	0	---	0.00	29.885 
03:35	48.9	48.9	48.9	96	47.8	0	2	225	0.00	29.885 
03:40	48.9	48.9	48.9	95	47.5	0	0	---	0.00	29.885 
03:45	48.9	48.9	48.9	96	47.8	0	1	225	0.00	29.889 
03:50	48.9	48.9	48.9	96	47.8	0	2	225	0.00	29.889 
03:55	49.1	49.1	49.1	96	48.0	0	0	---	0.00	29.889 
04:00	49.1	49.1	49.1	96	48.0	0	2	202	0.00	29.884 
04:05	48.9	48.9	48.9	96	47.8	0	3	112	0.00	29.884 
04:10	48.9	48.9	48.9	96	47.8	0	4	112	0.00	29.884 
04:15	48.9	48.9	48.9	96	47.8	0	1	112	0.00	29.888 
04:20	49.1	49.1	49.1	96	48.0	0	2	112	0.00	29.888 
04:25	48.9	48.9	48.9	96	47.8	1	5	112	0.00	29.888 
04:30	48.8	48.8	48.8	96	47.7	1	3	90	0.00	29.901 
04:35	48.8	48.8	48.8	96	47.7	1	4	90	0.00	29.901 
04:40	48.6	48.6	48.6	96	47.5	1	2	90	0.00	29.901 
04:45	48.6	48.6	48.6	96	47.5	0	3	90	0.00	29.901 
04:50	48.6	48.6	48.6	96	47.5	1	4	135	0.00	29.901 
04:55	48.6	48.6	48.6	96	47.5	0	2	135	0.00	29.901 
05:00	48.8	48.8	48.8	96	47.7	0	3	135	0.00	29.901 
05:05	48.8	48.8	48.8	96	47.7	0	2	135	0.00	29.901 
05:10	48.8	48.8	48.8	96	47.7	0	0	---	0.00	29.901 
05:15	48.8	48.8	48.8	96	47.7	0	2	135	0.00	29.898 
05:20	48.9	48.9	48.9	96	47.8	0	2	135	0.00	29.898 
05:25	48.9	48.9	48.9	96	47.8	0	1	135	0.00	29.898 
05:30	48.9	48.9	48.9	96	47.8	0	1	135	0.00	29.898 
05:35	48.9	48.9	48.9	96	47.8	0	1	135	0.00	29.898 
05:40	48.9	48.9	48.9	96	47.8	0	0	---	0.00	29.898 
05:45	48.9	48.9	48.9	96	47.8	0	1	135	0.00	29.890 
05:50	49.1	49.1	49.1	96	48.0	0	1	135	0.00	29.890 
05:55	49.1	49.1	49.1	96	48.0	0	2	135	0.00	29.890 
06:00	49.1	49.1	49.1	96	48.0	0	1	135	0.00	29.900 
06:05	48.9	48.9	48.9	96	47.8	0	1	135	0.00	29.900 
06:10	48.9	48.9	48.9	96	47.8	0	1	135	0.00	29.900 
06:15	49.1	49.1	49.1	96	48.0	0	3	135	0.00	29.909 
06:20	49.1	49.1	49.1	96	48.0	1	3	135	0.00	29.909 
06:25	49.1	49.1	49.1	96	48.0	0	3	135	0.00	29.909 
06:30	49.1	49.1	49.1	96	48.0	0	2	135	0.00	29.911 
06:35	49.1	49.1	49.1	96	48.0	0	2	135	0.00	29.911 
06:40	49.1	49.1	49.1	96	48.0	0	0	---	0.00	29.911 
06:45	49.1	49.1	49.1	96	48.0	0	2	135	0.00	29.920 
06:50	49.1	49.1	49.1	96	48.0	1	3	135	0.00	29.920 
06:55	49.1	49.1	49.1	96	48.0	0	2	135	0.00	29.920 
07:00	49.1	49.1	49.1	96	48.0	0	2	135	0.00	29.922 
07:05	49.1	49.1	49.1	96	48.0	0	1	135	0.00	29.922 
07:10	49.2	49.2	49.2	96	48.1	0	2	135	0.00	29.922 
07:15	49.2	49.2	49.2	96	48.1	0	1	135	0.00	29.926 
07:20	49.2	49.2	49.2	96	48.1	0	1	135	0.00	29.926 
07:25	49.2	49.2	49.2	96	48.1	0	0	---	0.00	29.926 
07:30	49.2	49.2	49.2	96	48.1	0	0	---	0.00	29.926 
07:35	49.2	49.2	49.2	96	48.1	0	0	---	0.00	29.926 
07:40	49.2	49.2	49.2	96	48.1	0	0	---	0.00	29.926 
07:45	49.2	49.2	49.2	96	48.1	0	1	135	0.00	29.931 
07:50	49.2	49.2	49.2	96	48.1	0	1	135	0.00	29.931 
07:55	49.2	49.2	49.2	96	48.1	0	1	135	0.00	29.931 
08:00	49.2	49.2	49.2	96	48.1	0	2	135	0.00	29.930 
08:05	49.4	49.4	49.4	96	48.3	0	1	135	0.00	29.930 
08:10	49.4	49.4	49.4	96	48.3	0	1	135	0.00	29.930 
08:15	49.5	49.5	49.5	96	48.4	0	1	135	0.00	29.936 
08:20	49.5	49.5	49.5	96	48.4	0	1	135	0.00	29.936 
08:25	49.6	49.6	49.6	96	48.5	0	1	180	0.00	29.936 
08:30	49.5	49.5	49.5	96	48.4	0	2	248	0.00	29.942 
08:35	49.5	49.5	49.5	96	48.4	0	0	---	0.00	29.942 
08:40	49.6	49.6	49.6	96	48.5	0	3	135	0.00	29.942 
08:45	49.8	49.8	49.8	96	48.7	0	2	135	0.00	29.944 
08:50	49.9	49.9	49.9	96	48.8	0	2	135	0.00	29.944 
08:55	49.9	49.9	49.9	95	48.5	0	3	135	0.00	29.944 
09:00	49.9	49.9	49.9	96	48.8	0	2	135	0.00	29.950 
09:05	49.9	49.9	49.9	95	48.5	0	0	---	0.00	29.950 
09:10	49.9	49.9	49.9	95	48.5	0	1	135	0.00	29.950 
09:15	49.9	49.9	49.9	95	48.5	0	1	135	0.00	29.952 
09:20	49.9	49.9	49.9	95	48.5	0	1	135	0.00	29.952 
09:25	49.9	49.9	49.9	95	48.5	0	1	135	0.00	29.952 
09:30	50.1	50.1	50.1	95	48.7	0	2	135	0.00	29.955 
09:35	50.2	50.2	50.2	95	48.8	0	1	135	0.00	29.955 
09:40	50.4	50.4	50.4	95	49.0	0	1	135	0.00	29.955 
09:45	50.4	50.4	50.4	95	49.0	0	2	135	0.00	29.956 
09:50	50.4	50.4	50.4	95	49.0	0	1	135	0.00	29.956 
09:55	50.5	50.5	50.5	95	49.1	0	2	135	0.00	29.956 
10:00	50.7	50.7	50.7	95	49.3	0	3	135	0.00	29.958 
10:05	50.8	50.8	50.8	95	49.4	0	2	135	0.00	29.958 
10:10	51.0	51.0	51.0	95	49.6	0	1	135	0.00	29.958 
10:15	51.0	51.0	51.0	94	49.3	1	2	135	0.00	29.956 
10:20	51.1	51.1	51.1	94	49.4	0	2	135	0.00	29.956 
10:25	51.1	51.1	51.1	93	49.1	0	1	135	0.00	29.956 
10:30	51.1	51.1	51.1	93	49.1	0	2	135	0.00	29.955 
10:35	51.1	51.1	51.1	93	49.1	0	3	158	0.00	29.955 
10:40	51.4	51.4	51.4	93	49.4	0	2	158	0.00	29.955 
10:45	51.4	51.4	51.4	93	49.4	0	2	158	0.00	29.954 
10:50	51.4	51.4	51.4	92	49.2	1	3	90	0.00	29.954 
10:55	51.4	51.4	51.4	92	49.2	1	3	90	0.00	29.954 
11:00	51.6	51.6	51.6	92	49.4	1	4	90	0.00	29.950 
11:05	51.6	51.6	51.6	92	49.4	1	4	90	0.00	29.950 
11:10	51.7	51.7	51.7	92	49.5	0	3	90	0.00	29.950 
11:15	51.6	51.6	51.6	91	49.1	1	4	90	0.00	29.955 
11:20	51.7	51.7	51.7	91	49.2	0	3	90	0.00	29.955 
11:25	51.7	51.7	51.7	91	49.2	1	3	90	0.00	29.955 
11:30	51.7	51.7	51.7	91	49.2	1	3	90	0.00	29.955 
11:35	51.9	51.9	51.9	91	49.4	0	2	90	0.00	29.955 
11:40	51.9	51.9	51.9	91	49.4	1	4	112	0.00	29.955 
11:45	52.0	52.0	52.0	90	49.2	2	4	112	0.00	29.950 
11:50	52.2	52.2	52.2	91	49.7	1	4	112	0.00	29.950 
11:55	52.2	52.2	52.2	90	49.4	1	3	90	0.00	29.950 
12:00	52.2	52.2	52.2	90	49.4	1	3	90	0.00	29.945 
12:05	52.5	52.5	52.5	90	49.7	1	3	90	0.00	29.945 
12:10	52.5	52.5	52.5	89	49.4	1	3	90	0.00	29.945 
12:15	52.6	52.6	52.6	89	49.4	2	5	68	0.00	29.951 
12:20	52.6	52.6	52.6	89	49.4	0	2	68	0.00	29.951 
12:25	52.6	52.6	52.6	88	49.1	1	4	68	0.00	29.951 
12:30	52.9	52.9	52.9	89	49.7	1	2	90	0.00	29.951 
12:35	52.9	52.9	52.9	88	49.4	2	5	90	0.00	29.951 
12:40	53.1	53.1	53.1	89	49.9	1	3	90	0.00	29.951 
12:45	53.1	53.1	53.1	88	49.6	1	4	90	0.00	29.946 
12:50	53.2	53.2	53.2	89	50.0	1	3	90	0.00	29.946 
12:55	53.5	53.5	53.5	88	50.0	1	3	90	0.00	29.946 
13:00	53.5	53.5	53.5	88	50.0	1	3	90	0.00	29.941 
13:05	53.6	53.6	53.6	88	50.1	2	4	90	0.00	29.941 
13:10	53.9	53.9	53.9	87	50.1	2	4	90	0.00	29.941 
13:15	53.9	53.9	53.9	87	50.1	1	3	90	0.00	29.945 
13:20	54.1	54.1	54.1	86	50.0	1	3	90	0.00	29.945 
13:25	54.1	54.1	54.1	86	50.0	1	4	90	0.00	29.945 
13:30	54.2	54.2	54.2	86	50.1	0	2	90	0.00	29.954 
13:35	54.4	54.4	54.4	86	50.3	0	1	90	0.00	29.954 
13:40	54.2	54.2	54.2	86	50.1	0	2	90	0.00	29.954 
13:45	54.2	54.2	54.2	86	50.1	0	1	90	0.00	29.955 
13:50	54.1	54.1	54.1	86	50.0	0	1	90	0.00	29.955 
13:55	54.1	54.1	54.1	85	49.7	0	1	90	0.00	29.955 
14:00	54.1	54.1	54.1	86	50.0	0	1	90	0.00	29.955 
14:05	54.1	54.1	54.1	86	50.0	0	0	---	0.00	29.955 
14:10	54.2	54.2	54.2	86	50.1	0	0	---	0.00	29.955 
14:15	54.2	54.2	54.2	86	50.1	0	0	---	0.00	29.957 
14:20	54.4	54.4	54.4	86	50.3	0	0	---	0.00	29.957 
14:25	54.5	54.5	54.5	86	50.4	0	0	---	0.00	29.957 
14:30	54.5	54.5	54.5	86	50.4	0	1	68	0.00	29.954 
14:35	54.5	54.5	54.5	86	50.4	0	0	---	0.00	29.954 
14:40	54.7	54.7	54.7	86	50.6	0	0	---	0.00	29.954 
14:45	54.7	54.7	54.7	85	50.3	0	1	68	0.00	29.951 
14:50	54.8	54.8	54.8	85	50.4	0	2	68	0.00	29.951 
14:55	54.8	54.8	54.8	85	50.4	0	1	68	0.00	29.951 
15:00	55.1	55.1	55.1	85	50.7	0	1	68	0.00	29.945 
15:05	55.3	55.3	55.3	84	50.5	0	2	68	0.00	29.945 
15:10	55.6	55.6	55.6	84	50.8	0	2	68	0.00	29.945 
15:15	55.9	55.9	55.9	84	51.1	0	1	68	0.00	29.938 
15:20	55.7	55.7	55.7	84	50.9	0	4	135	0.00	29.938 
15:25	55.9	55.9	55.9	84	51.1	0	1	135	0.00	29.938 
15:30	55.9	55.9	55.9	84	51.1	0	1	135	0.00	29.943 
15:35	55.9	55.9	55.9	84	51.1	0	2	135	0.00	29.943 
15:40	55.9	55.9	55.9	84	51.1	0	1	135	0.00	29.943 
15:45	55.9	55.9	55.9	84	51.1	0	1	135	0.00	29.941 
15:50	55.9	55.9	55.9	84	51.1	0	0	---	0.00	29.941 
15:55	55.9	55.9	55.9	83	50.8	0	1	158	0.00	29.941 
16:00	56.2	56.2	56.2	84	51.4	0	1	315	0.00	29.939 
16:05	56.3	56.3	56.3	83	51.2	0	1	315	0.00	29.939 
16:10	56.6	56.6	56.6	83	51.5	0	1	315	0.00	29.939 
16:15	56.9	56.9	56.9	83	51.8	0	2	315	0.00	29.936 
16:20	56.9	56.9	56.9	83	51.8	0	3	45	0.00	29.936 
16:25	57.0	57.0	57.0	82	51.6	0	0	---	0.00	29.936 
16:30	57.0	57.0	57.0	81	51.2	0	2	45	0.00	29.935 
16:35	56.9	56.9	56.9	82	51.5	0	0	---	0.00	29.935 
16:40	56.9	56.9	56.9	81	51.1	0	0	---	0.00	29.935 
16:45	57.0	57.0	57.0	82	51.6	0	1	45	0.00	29.930 
16:50	57.2	57.2	57.2	82	51.8	0	0	---	0.00	29.930 
16:55	57.2	57.2	57.2	82	51.8	0	0	---	0.00	29.930 
17:00	57.0	57.0	57.0	82	51.6	0	0	---	0.00	29.923 
17:05	57.0	57.0	57.0	82	51.6	0	0	---	0.00	29.923 
17:10	56.9	56.9	56.9	82	51.5	0	1	45	0.00	29.923 
17:15	56.9	56.9	56.9	82	51.5	1	3	68	0.00	29.918 
17:20	56.9	56.9	56.9	83	51.8	1	3	68	0.00	29.918 
17:25	57.0	57.0	57.0	84	52.2	0	2	68	0.00	29.918 
17:30	57.2	57.2	57.2	83	52.1	0	3	68	0.00	29.910 
17:35	57.2	57.2	57.2	82	51.8	1	4	112	0.00	29.910 
17:40	57.2	57.2	57.2	82	51.8	1	3	112	0.00	29.910 
17:45	57.0	57.0	57.0	82	51.6	0	2	112	0.00	29.918 
17:50	57.0	57.0	57.0	82	51.6	0	1	112	0.00	29.918 
17:55	57.2	57.2	57.2	83	52.1	0	1	112	0.00	29.918 
18:00	57.2	57.2	57.2	83	52.1	0	0	---	0.00	29.917 
18:05	57.3	57.3	57.3	82	51.9	0	1	112	0.00	29.917 
18:10	57.3	57.3	57.3	82	51.9	0	1	112	0.00	29.917 
18:15	57.3	57.3	57.3	82	51.9	0	1	112	0.00	29.905 
18:20	57.5	57.5	57.5	82	52.0	0	2	112	0.00	29.905 
18:25	57.5	57.5	57.5	83	52.4	0	2	112	0.00	29.905 
18:30	57.3	57.3	57.3	82	51.9	1	3	112	0.00	29.897 
18:35	57.2	57.2	57.2	82	51.8	1	4	112	0.00	29.897 
18:40	57.3	57.3	57.3	83	52.2	0	2	90	0.00	29.897 
18:45	57.3	57.3	57.3	83	52.2	1	3	90	0.00	29.888 
18:50	57.2	57.2	57.2	84	52.4	0	3	90	0.00	29.888 
18:55	57.2	57.2	57.2	83	52.1	1	3	90	0.00	29.888 
19:00	57.2	57.2	57.2	84	52.4	1	3	90	0.00	29.892 
19:05	57.2	57.2	57.2	84	52.4	1	3	90	0.00	29.892 
19:10	57.0	57.0	57.0	84	52.2	0	1	90	0.00	29.892 
19:15	57.0	57.0	57.0	84	52.2	1	2	90	0.00	29.894 
19:20	57.0	57.0	57.0	85	52.5	0	3	90	0.00	29.894 
19:25	57.0	57.0	57.0	85	52.5	0	1	90	0.00	29.894 
19:30	56.9	56.9	56.9	84	52.1	0	2	90	0.00	29.905 
19:35	56.9	56.9	56.9	83	51.8	0	1	90	0.00	29.905 
19:40	57.0	57.0	57.0	84	52.2	0	0	---	0.00	29.905 
19:45	56.9	56.9	56.9	84	52.1	0	0	---	0.00	29.915 
19:50	56.9	56.9	56.9	83	51.8	0	1	22	0.00	29.915 
19:55	57.0	57.0	57.0	84	52.2	0	0	---	0.00	29.915 
20:00	56.9	56.9	56.9	84	52.1	0	0	---	0.00	29.920 
20:05	56.9	56.9	56.9	84	52.1	0	0	---	0.00	29.920 
20:10	56.9	56.9	56.9	84	52.1	0	1	22	0.00	29.920 
20:15	56.7	56.7	56.7	84	51.9	0	1	22	0.00	29.921 
20:20	56.7	56.7	56.7	84	51.9	0	1	22	0.00	29.921 
20:25	56.6	56.6	56.6	85	52.1	0	1	22	0.00	29.921 
20:30	56.6	56.6	56.6	85	52.1	0	1	22	0.00	29.925 
20:35	56.6	56.6	56.6	86	52.5	0	0	---	0.00	29.925 
20:40	56.6	56.6	56.6	86	52.5	0	0	---	0.00	29.925 
20:45	56.5	56.5	56.5	86	52.4	0	0	---	0.00	29.939 
20:50	56.5	56.5	56.5	86	52.4	0	0	---	0.00	29.939 
20:55	56.5	56.5	56.5	87	52.7	0	0	---	0.00	29.939 
21:00	56.5	56.5	56.5	87	52.7	0	0	---	0.00	29.946 
21:05	56.3	56.3	56.3	88	52.8	0	2	22	0.00	29.946 
21:10	56.3	56.3	56.3	88	52.8	0	1	22	0.00	29.946 
21:15	56.3	56.3	56.3	89	53.1	0	1	22	0.00	29.941 
21:20	56.2	56.2	56.2	89	53.0	0	0	---	0.00	29.941 
21:25	56.0	56.0	56.0	90	53.1	0	0	---	0.00	29.941 
21:30	56.0	56.0	56.0	90	53.1	0	0	---	0.00	29.946 
21:35	56.0	56.0	56.0	90	53.1	0	0	---	0.00	29.946 
21:40	56.0	56.0	56.0	90	53.1	0	0	---	0.00	29.946 
21:45	55.9	55.9	55.9	91	53.3	0	0	---	0.00	29.936 
21:50	55.9	55.9	55.9	91	53.3	0	0	---	0.00	29.936 
21:55	55.9	55.9	55.9	91	53.3	0	2	22	0.00	29.936 
22:00	55.9	55.9	55.9	91	53.3	0	1	22	0.00	29.923 
22:05	55.9	55.9	55.9	92	53.6	0	1	22	0.00	29.923 
22:10	55.9	55.9	55.9	92	53.6	0	1	22	0.00	29.923 
22:15	55.7	55.7	55.7	92	53.4	0	1	22	0.00	29.923 
22:20	55.7	55.7	55.7	92	53.4	0	0	---	0.00	29.923 
22:25	55.9	55.9	55.9	92	53.6	0	0	---	0.00	29.923 
22:30	55.9	55.9	55.9	92	53.6	0	0	---	0.00	29.922 
22:35	55.9	55.9	55.9	92	53.6	0	0	---	0.00	29.922 
22:40	55.9	55.9	55.9	92	53.6	0	1	22	0.00	29.922 
22:45	55.9	55.9	55.9	92	53.6	0	1	22	0.00	29.920 
22:50	55.9	55.9	55.9	92	53.6	0	1	22	0.00	29.920 
22:55	55.9	55.9	55.9	92	53.6	0	0	---	0.00	29.920 
23:00	55.9	55.9	55.9	92	53.6	0	1	22	0.00	29.919 
23:05	55.7	55.7	55.7	92	53.4	0	0	---	0.00	29.919 
23:10	55.7	55.7	55.7	92	53.4	0	0	---	0.00	29.919 
23:15	55.9	55.9	55.9	92	53.6	0	2	22	0.00	29.920 
23:20	55.9	55.9	55.9	93	53.9	0	1	22	0.00	29.920 
23:25	55.9	55.9	55.9	93	53.9	0	1	22	0.00	29.920 
23:30	55.9	55.9	55.9	93	53.9	0	1	22	0.00	29.918 
23:35	55.7	55.7	55.7	93	53.7	0	1	22	0.00	29.918 
23:40	55.9	55.9	55.9	93	53.9	0	1	22	0.00	29.918 
23:45	55.9	55.9	55.9	93	53.9	0	0	---	0.00	29.913 
23:50	55.9	55.9	55.9	93	53.9	0	0	---	0.00	29.913 
23:55	55.9	55.9	55.9	93	53.9	0	0	---	0.00	29.913 

CoCoRaHS
IN-AL-39
A2 Web Hosting
Creative Commons License
GoDaddy
search engine by freefind advanced

loaded 2018-11-17 18:52:40 • last modified 2010-11-18 10:43:29
Privacy PolicyDisclaimer
• wx.awcolley.com is powered by PmWiki v.2002016 •
• all content (unless otherwise noted) © 2018 A W Colley